ユジノサハリンスク の空港の天気 - METARとTAF

ホムトヴォ空港(ユジノサハリンスク) ( UHSS / UUS ) - ロシア ユジノサハリンスク
飛行場実況気象(Metar)
観測時間05/25 12:30 VLAT (05/25 02:30 UTC)
風向・風速北 10m/s 瞬間風速15m/s
視程10km以上
天気現象
全天の4割程度の雲 雲底高度 210m
気温7℃
湿度81%
気圧1002hPa
METARUHSS 250230Z 36010G15MPS 9999 SCT007 07/04 Q1002 R01/70D NOSIG RMK MT OBSC QFE750/1001
過去の天気等 Google飛行場航空写真 Wunderground天気予報

過去48時間のMETAR

飛行場予報(TAF)
発表時間: 5/25 12:00 VLAT (5/25 02:00 UTC)
予報対象時間: 25日13時 VLAT ~ 26日19時 VLAT
風向・風速北 10m/s 瞬間風速 15m/s
視程10km以上
天気現象弱いしゅう雨
全天の8割程度の雲 雲底高度 180m
全天の8割程度の積乱雲 雲底高度 610m
25日17時 VLAT ~ 25日19時 VLAT に徐々に
風向・風速北東 4m/s
25日22時 VLAT から
風向・風速北北西 3m/s
視程3,100m
天気現象弱いしゅう雨 もや
全天の8割程度の雲 雲底高度 120m
全天の8割程度の積乱雲 雲底高度 610m
26日16時 VLAT ~ 26日18時 VLAT に徐々に
視程10km以上
天気現象運行に影響にある天気現象が終了
全天の4割程度の積乱雲 雲底高度 910m
TAF UHSS 250200Z 2503/2609 01010G15MPS 9999 -SHRA BKN006 BKN020CB
BECMG 2507/2509 04004MPS
FM251200 34003MPS 3100 -SHRA BR BKN004 BKN020CB
BECMG 2606/2608 9999 NSW SCT030CB